Time;durP1;ratioP1;P1;durP2;ratioP2;P2;SDS_P1;SDS_P2;PMS_P1;PMS_P2;Temp;Humidity;BMP_temperature;BMP_pressure;BME280_temperature;BME280_humidity;BME280_pressure;Samples;Min_cycle;Max_cycle;Signal;HPM_P1;HPM_P2
2022/05/06 00:02:19;;;;;;;9.30;4.68;;;13.80;36.60;;;;;;4948896;28;20167;-81
2022/05/06 00:04:45;;;;;;;9.82;4.65;;;13.80;36.60;;;;;;4965484;28;20066;-80
2022/05/06 00:07:12;;;;;;;9.35;4.88;;;13.80;36.60;;;;;;4964553;28;20039;-82
2022/05/06 00:09:39;;;;;;;8.60;4.95;;;13.80;36.70;;;;;;4948399;28;20038;-81
2022/05/06 00:12:06;;;;;;;8.38;4.82;;;13.80;36.70;;;;;;4965058;28;20035;-81
2022/05/06 00:14:34;;;;;;;6.78;4.82;;;13.80;36.70;;;;;;4964495;28;20078;-81
2022/05/06 00:17:02;;;;;;;13.32;4.53;;;13.80;36.70;;;;;;4965071;28;20430;-81
2022/05/06 00:19:28;;;;;;;10.85;4.88;;;13.80;36.70;;;;;;4964582;28;20076;-81
2022/05/06 00:21:54;;;;;;;10.32;4.88;;;13.80;36.70;;;;;;4962783;28;20039;-81
2022/05/06 00:24:20;;;;;;;9.13;4.20;;;13.80;36.70;;;;;;4965036;28;20035;-81
2022/05/06 00:26:46;;;;;;;7.88;4.53;;;13.70;36.70;;;;;;4965011;28;20434;-81
2022/05/06 00:29:14;;;;;;;9.88;4.60;;;13.80;36.70;;;;;;4964475;28;20172;-79
2022/05/06 00:31:40;;;;;;;7.15;4.45;;;13.70;36.70;;;;;;4947622;28;20129;-79
2022/05/06 00:34:10;;;;;;;7.43;4.32;;;13.70;36.70;;;;;;4943179;28;20101;-80
2022/05/06 00:36:37;;;;;;;7.82;4.40;;;13.70;36.70;;;;;;4963688;28;20038;-81
2022/05/06 00:39:03;;;;;;;5.88;3.75;;;13.70;36.70;;;;;;4947146;28;20073;-81
2022/05/06 00:41:35;;;;;;;7.75;4.35;;;13.70;36.70;;;;;;4963354;28;20039;-80
2022/05/06 00:44:04;;;;;;;7.93;4.25;;;13.70;36.70;;;;;;4965384;28;20507;-80
2022/05/06 00:46:31;;;;;;;11.20;4.32;;;13.70;36.70;;;;;;4962870;28;20043;-81
2022/05/06 00:48:58;;;;;;;6.00;4.20;;;13.70;36.80;;;;;;4964381;28;20034;-80
2022/05/06 00:51:24;;;;;;;9.52;4.32;;;13.70;36.80;;;;;;4963788;28;20469;-80
2022/05/06 00:53:55;;;;;;;8.50;4.47;;;13.70;36.90;;;;;;4941292;28;20073;-79
2022/05/06 00:56:25;;;;;;;7.72;4.63;;;13.70;36.90;;;;;;4963750;28;20439;-79
2022/05/06 00:58:52;;;;;;;8.57;4.10;;;13.70;36.90;;;;;;4962655;28;20112;-79
2022/05/06 01:01:19;;;;;;;6.72;4.47;;;13.70;37.00;;;;;;4948774;28;20142;-80
2022/05/06 01:03:45;;;;;;;6.95;3.65;;;13.60;36.90;;;;;;4963397;28;20047;-79
2022/05/06 01:06:13;;;;;;;7.15;4.50;;;13.70;37.00;;;;;;4963910;28;20752;-79
2022/05/06 01:08:42;;;;;;;8.38;4.20;;;13.60;37.00;;;;;;4946434;28;20035;-80
2022/05/06 01:11:11;;;;;;;5.68;3.95;;;13.60;37.00;;;;;;4962772;28;20037;-79
2022/05/06 01:13:47;;;;;;;10.07;4.15;;;13.60;37.10;;;;;;4964997;28;20038;-79
2022/05/06 01:16:21;;;;;;;6.47;4.07;;;13.60;37.10;;;;;;4962879;28;20035;-79
2022/05/06 01:18:52;;;;;;;6.70;3.83;;;13.60;37.10;;;;;;4946818;28;20071;-80
2022/05/06 01:21:26;;;;;;;7.43;3.90;;;13.60;37.10;;;;;;4962525;28;20027;-79
2022/05/06 01:23:52;;;;;;;9.73;4.15;;;13.60;37.10;;;;;;4963857;28;20043;-79
2022/05/06 01:26:17;;;;;;;8.18;4.30;;;13.60;37.10;;;;;;4964381;28;20033;-79
2022/05/06 01:28:45;;;;;;;7.13;3.65;;;13.60;37.10;;;;;;4964774;28;20121;-80
2022/05/06 01:31:19;;;;;;;7.40;3.55;;;13.60;37.10;;;;;;4963992;28;20035;-80
2022/05/06 01:33:54;;;;;;;6.43;4.43;;;13.60;37.10;;;;;;4941307;28;20042;-80
2022/05/06 01:36:24;;;;;;;6.55;3.72;;;13.60;37.20;;;;;;4964378;28;20062;-78
2022/05/06 01:38:54;;;;;;;6.03;3.78;;;13.60;37.10;;;;;;4964107;28;20627;-78
2022/05/06 01:41:23;;;;;;;6.00;3.60;;;13.60;37.20;;;;;;4964864;28;20513;-78
2022/05/06 01:44:04;;;;;;;5.70;3.80;;;13.60;37.90;;;;;;4963256;28;20043;-78
2022/05/06 01:46:35;;;;;;;5.82;3.58;;;13.50;37.30;;;;;;4962550;28;20039;-79
2022/05/06 01:49:04;;;;;;;4.15;3.45;;;13.60;37.30;;;;;;4965360;28;20038;-78
2022/05/06 01:51:32;;;;;;;7.13;3.92;;;13.60;37.40;;;;;;4949748;28;20485;-79
2022/05/06 01:54:00;;;;;;;6.53;3.63;;;13.50;37.40;;;;;;4950054;28;20050;-79
2022/05/06 01:56:29;;;;;;;7.78;3.47;;;13.50;37.40;;;;;;4965551;28;20042;-79
2022/05/06 01:58:56;;;;;;;6.18;3.42;;;13.50;37.40;;;;;;4966965;28;20035;-79
2022/05/06 02:01:22;;;;;;;5.68;3.38;;;13.50;37.40;;;;;;4945394;28;20046;-79
2022/05/06 02:06:35;;;;;;;5.22;3.33;;;13.50;37.40;;;;;;4965094;28;20047;-80
2022/05/06 02:09:08;;;;;;;5.20;3.67;;;13.50;37.40;;;;;;4949856;28;20035;-80
2022/05/06 02:11:50;;;;;;;6.40;3.28;;;13.50;37.50;;;;;;4967132;28;20397;-80
2022/05/06 02:14:17;;;;;;;6.32;3.75;;;13.50;37.60;;;;;;4966927;28;20164;-80
2022/05/06 02:17:12;;;;;;;6.40;3.63;;;13.50;37.60;;;;;;4978914;28;20058;-79
2022/05/06 02:20:10;;;;;;;8.52;4.03;;;13.50;37.90;;;;;;4991188;28;20129;-80
2022/05/06 02:22:54;;;;;;;6.32;3.60;;;13.50;37.60;;;;;;4991037;28;20038;-79
2022/05/06 02:25:43;;;;;;;6.32;3.45;;;13.50;37.60;;;;;;4981157;28;20041;-80
2022/05/06 02:28:18;;;;;;;5.90;3.57;;;13.50;37.70;;;;;;4977442;28;20057;-79
2022/05/06 02:33:44;;;;;;;6.82;3.22;;;13.50;37.70;;;;;;4990833;28;20903;-78
2022/05/06 02:36:23;;;;;;;6.03;3.17;;;13.50;37.70;;;;;;4989587;28;20164;-79
2022/05/06 02:38:49;;;;;;;5.95;3.17;;;13.50;38.30;;;;;;4989958;28;20982;-78
2022/05/06 02:41:16;;;;;;;7.75;3.65;;;13.50;37.70;;;;;;4974182;28;20374;-79
2022/05/06 02:44:04;;;;;;;5.80;3.55;;;13.50;37.70;;;;;;4990084;28;20038;-78
2022/05/06 02:46:36;;;;;;;6.10;3.40;;;13.50;37.70;;;;;;4990340;28;20054;-79
2022/05/06 02:49:03;;;;;;;5.88;2.88;;;13.50;37.80;;;;;;4989729;28;20431;-79
2022/05/06 02:51:30;;;;;;;4.18;3.00;;;13.50;37.80;;;;;;4975674;28;20137;-79
2022/05/06 02:53:56;;;;;;;4.53;3.22;;;13.50;37.70;;;;;;4989762;28;20121;-78
2022/05/06 02:56:28;;;;;;;4.82;2.97;;;13.50;37.80;;;;;;4977404;28;20138;-76
2022/05/06 02:58:58;;;;;;;9.25;2.95;;;13.50;37.70;;;;;;4971178;28;20100;-77
2022/05/06 03:01:28;;;;;;;5.78;3.13;;;13.50;37.80;;;;;;4964891;28;20523;-78
2022/05/06 03:03:58;;;;;;;8.70;3.42;;;13.50;37.80;;;;;;4928730;28;20164;-77
2022/05/06 03:06:24;;;;;;;5.60;3.45;;;13.50;37.80;;;;;;4948708;28;20126;-78
2022/05/06 03:08:52;;;;;;;6.13;3.17;;;13.50;37.80;;;;;;4944859;28;20041;-78
2022/05/06 03:11:22;;;;;;;4.50;2.83;;;13.50;37.90;;;;;;4968779;28;20058;-78
2022/05/06 03:13:55;;;;;;;4.93;2.63;;;13.50;37.90;;;;;;4948849;28;20029;-78
2022/05/06 03:16:26;;;;;;;5.93;2.70;;;13.50;37.90;;;;;;4965597;28;20039;-78
2022/05/06 03:18:51;;;;;;;3.92;3.17;;;13.60;37.90;;;;;;4965684;28;20050;-78
2022/05/06 03:21:18;;;;;;;6.93;3.10;;;13.50;37.80;;;;;;4966168;28;20030;-78
2022/05/06 03:23:50;;;;;;;5.28;3.00;;;13.60;38.00;;;;;;4966015;28;20125;-78
2022/05/06 03:26:16;;;;;;;9.25;3.25;;;13.60;38.00;;;;;;4965196;28;20031;-78
2022/05/06 03:28:43;;;;;;;7.45;3.00;;;13.60;38.00;;;;;;4966414;28;20088;-78
2022/05/06 03:31:11;;;;;;;4.85;2.78;;;13.60;38.00;;;;;;4965999;28;20046;-79
2022/05/06 03:33:41;;;;;;;6.85;3.58;;;13.60;38.00;;;;;;4945543;28;20053;-78
2022/05/06 03:36:24;;;;;;;6.60;2.67;;;13.60;38.00;;;;;;4963919;28;20042;-78
2022/05/06 03:38:56;;;;;;;5.13;3.10;;;13.60;38.00;;;;;;5048660;28;20512;-78
2022/05/06 03:41:26;;;;;;;7.53;3.17;;;13.60;38.10;;;;;;4962889;28;20171;-77
2022/05/06 03:43:53;;;;;;;5.32;2.70;;;13.60;38.10;;;;;;4947194;28;20110;-76
2022/05/06 03:46:22;;;;;;;5.97;2.85;;;13.60;38.00;;;;;;4931631;28;20083;-77
2022/05/06 03:48:51;;;;;;;5.15;2.90;;;13.60;38.10;;;;;;4971155;28;20039;-77
2022/05/06 03:51:21;;;;;;;5.78;3.28;;;13.60;38.00;;;;;;4947207;28;20126;-77
2022/05/06 03:53:53;;;;;;;9.25;3.00;;;13.70;38.20;;;;;;4962240;28;20130;-77
2022/05/06 03:56:22;;;;;;;4.40;2.72;;;13.70;38.20;;;;;;4963909;28;20112;-77
2022/05/06 03:58:52;;;;;;;9.23;3.10;;;13.70;38.20;;;;;;4945279;28;20039;-77
2022/05/06 04:01:19;;;;;;;4.80;2.80;;;13.80;38.20;;;;;;4962454;28;20039;-77
2022/05/06 04:03:51;;;;;;;6.20;3.08;;;13.80;38.30;;;;;;4946068;28;20040;-77
2022/05/06 04:06:19;;;;;;;6.35;3.13;;;13.90;38.50;;;;;;4963293;28;20548;-77
2022/05/06 04:08:51;;;;;;;7.68;3.00;;;13.90;38.50;;;;;;4946333;28;20035;-77
2022/05/06 04:11:20;;;;;;;7.13;3.30;;;13.90;38.70;;;;;;4960502;28;20084;-77
2022/05/06 04:13:47;;;;;;;3.70;2.60;;;14.00;38.90;;;;;;4962960;28;20477;-77
2022/05/06 04:16:14;;;;;;;5.47;2.58;;;14.00;39.00;;;;;;4963038;28;20663;-77
2022/05/06 04:18:42;;;;;;;6.78;3.10;;;14.00;39.20;;;;;;4964395;28;20073;-78
2022/05/06 04:23:55;;;;;;;8.98;3.22;;;14.00;39.20;;;;;;4947292;28;20492;-79
2022/05/06 04:26:21;;;;;;;6.90;3.17;;;14.10;39.30;;;;;;4963974;28;20042;-83
2022/05/06 04:28:52;;;;;;;5.57;2.78;;;14.20;39.30;;;;;;4965308;28;20031;-81
2022/05/06 04:31:18;;;;;;;7.78;3.00;;;14.20;39.40;;;;;;4947479;28;20054;-83
2022/05/06 04:33:46;;;;;;;4.43;2.83;;;14.30;39.40;;;;;;4963241;28;20045;-83
2022/05/06 04:36:34;;;;;;;5.70;2.97;;;14.30;39.40;;;;;;4948196;28;20035;-81
2022/05/06 04:39:04;;;;;;;8.43;3.00;;;14.40;39.40;;;;;;4962692;28;20047;-81
2022/05/06 04:41:34;;;;;;;6.78;3.28;;;14.40;39.50;;;;;;4942979;28;20607;-80
2022/05/06 04:44:00;;;;;;;6.53;3.20;;;14.50;39.50;;;;;;4948101;28;20034;-81
2022/05/06 04:46:30;;;;;;;6.40;2.88;;;14.50;39.60;;;;;;4962774;28;20035;-80
2022/05/06 04:48:56;;;;;;;7.88;3.30;;;14.50;39.50;;;;;;4948714;28;20031;-83
2022/05/06 04:51:23;;;;;;;4.35;3.08;;;14.50;39.60;;;;;;4962455;28;20059;-83
2022/05/06 04:53:54;;;;;;;6.40;2.92;;;14.70;39.80;;;;;;4966140;28;20062;-81
2022/05/06 04:56:22;;;;;;;8.75;3.20;;;14.80;40.00;;;;;;4941879;28;20034;-83
2022/05/06 04:58:49;;;;;;;4.82;2.90;;;14.90;40.10;;;;;;4947654;28;20069;-85
2022/05/06 05:01:23;;;;;;;6.30;3.28;;;15.00;40.20;;;;;;4962679;28;20035;-86
2022/05/06 05:03:50;;;;;;;6.32;3.30;;;15.00;40.70;;;;;;4915136;28;20223;-85
2022/05/06 05:06:18;;;;;;;11.00;3.28;;;15.00;41.10;;;;;;4946662;28;20089;-86
2022/05/06 05:08:46;;;;;;;5.43;3.20;;;15.10;40.90;;;;;;4951952;28;20427;-86
2022/05/06 05:11:14;;;;;;;5.53;3.08;;;15.10;40.60;;;;;;4930837;28;20031;-84
2022/05/06 05:13:48;;;;;;;8.05;3.72;;;15.10;40.50;;;;;;4949585;28;20296;-87
2022/05/06 05:16:22;;;;;;;8.55;3.40;;;15.20;40.50;;;;;;4930266;28;20035;-86
2022/05/06 05:18:49;;;;;;;6.32;3.10;;;15.10;40.30;;;;;;4947207;28;20039;-83
2022/05/06 05:21:15;;;;;;;8.23;3.47;;;15.10;40.30;;;;;;4943717;28;20038;-84
2022/05/06 05:23:41;;;;;;;8.57;3.47;;;15.10;40.30;;;;;;4933535;28;20035;-83
2022/05/06 05:26:08;;;;;;;10.48;3.30;;;15.10;40.30;;;;;;4966471;28;20077;-81
2022/05/06 05:28:35;;;;;;;5.07;2.88;;;15.10;39.90;;;;;;4950142;28;20042;-82
2022/05/06 05:31:01;;;;;;;11.75;3.50;;;15.10;40.00;;;;;;4949455;28;20039;-83
2022/05/06 05:33:28;;;;;;;6.03;2.80;;;15.10;40.30;;;;;;4945247;28;20043;-82
2022/05/06 05:35:57;;;;;;;7.68;3.28;;;15.10;40.30;;;;;;4973759;28;21005;-82
2022/05/06 05:38:24;;;;;;;6.85;2.85;;;15.10;40.20;;;;;;4933392;28;20058;-82
2022/05/06 05:40:51;;;;;;;5.07;3.10;;;15.10;40.20;;;;;;4945545;28;20026;-82
2022/05/06 05:48:54;;;;;;;6.05;3.00;;;15.10;40.20;;;;;;4948931;28;20050;-89
2022/05/06 05:51:21;;;;;;;6.28;2.75;;;15.10;40.10;;;;;;4946255;28;20039;-91
2022/05/06 05:53:54;;;;;;;8.43;4.40;;;15.10;40.20;;;;;;4966804;28;20041;-91
2022/05/06 05:56:25;;;;;;;9.75;5.65;;;15.10;40.60;;;;;;4932781;28;20112;-91
2022/05/06 05:58:51;;;;;;;10.90;6.28;;;15.10;40.80;;;;;;4963758;28;20103;-91
2022/05/06 06:01:21;;;;;;;10.40;5.57;;;15.10;40.90;;;;;;4948704;28;20035;-90
2022/05/06 06:03:47;;;;;;;7.45;4.63;;;15.20;41.10;;;;;;5010613;28;20037;-91
2022/05/06 06:06:14;;;;;;;9.68;4.25;;;15.10;41.30;;;;;;4931456;28;20417;-91
2022/05/06 06:08:41;;;;;;;8.27;4.25;;;15.20;41.30;;;;;;4932890;28;20031;-91
2022/05/06 06:11:09;;;;;;;7.85;3.60;;;15.20;41.50;;;;;;4948705;28;20718;-91
2022/05/06 06:13:43;;;;;;;4.78;3.03;;;15.20;41.40;;;;;;4956796;28;20031;-90
2022/05/06 06:16:14;;;;;;;5.65;3.30;;;15.30;41.30;;;;;;4950080;28;20045;-91
2022/05/06 06:18:40;;;;;;;8.43;3.40;;;15.20;41.30;;;;;;4950862;28;20035;-90
2022/05/06 06:21:06;;;;;;;9.00;3.35;;;15.30;41.30;;;;;;4932684;28;20038;-90
2022/05/06 06:23:33;;;;;;;6.03;2.78;;;15.30;41.30;;;;;;4929794;28;20034;-90
2022/05/06 06:26:00;;;;;;;8.15;2.95;;;15.30;41.30;;;;;;4956787;28;20046;-91
2022/05/06 06:28:27;;;;;;;5.45;2.75;;;15.30;41.30;;;;;;4932599;28;20035;-91
2022/05/06 06:30:54;;;;;;;5.70;3.15;;;15.30;41.30;;;;;;4952766;28;20074;-91
2022/05/06 06:33:20;;;;;;;4.78;2.95;;;15.40;41.30;;;;;;4944374;28;20184;-92
2022/05/06 06:35:47;;;;;;;5.03;2.88;;;15.40;41.30;;;;;;4947920;28;20038;-91
2022/05/06 06:38:14;;;;;;;7.13;2.90;;;15.40;41.20;;;;;;4979039;28;20081;-91
2022/05/06 06:40:43;;;;;;;8.13;3.72;;;15.50;41.20;;;;;;5029937;28;20093;-91
2022/05/06 06:43:09;;;;;;;7.32;3.50;;;15.50;41.00;;;;;;4917464;28;20121;-92
2022/05/06 06:45:58;;;;;;;6.53;3.08;;;15.50;41.10;;;;;;4947440;28;20035;-83
2022/05/06 06:48:45;;;;;;;6.05;3.00;;;15.60;41.10;;;;;;4979076;28;20527;-84
2022/05/06 06:51:26;;;;;;;9.20;3.20;;;15.60;41.10;;;;;;4965106;28;20481;-84
2022/05/06 06:53:55;;;;;;;7.15;2.83;;;15.60;41.00;;;;;;4964963;28;20143;-83
2022/05/06 06:56:21;;;;;;;5.07;3.08;;;15.70;41.10;;;;;;4965166;28;20043;-84
2022/05/06 06:58:47;;;;;;;9.45;3.33;;;15.70;41.20;;;;;;4964488;28;20084;-84
2022/05/06 07:01:13;;;;;;;9.20;3.50;;;15.70;40.80;;;;;;4947215;28;20572;-84
2022/05/06 07:03:39;;;;;;;9.48;3.28;;;15.70;40.60;;;;;;4965363;28;20039;-84
2022/05/06 07:11:52;;;;;;;5.78;3.08;;;15.90;40.60;;;;;;4964802;28;20027;-83
2022/05/06 07:14:19;;;;;;;4.63;2.83;;;15.90;40.50;;;;;;4965825;28;20187;-84
2022/05/06 07:16:45;;;;;;;8.70;3.53;;;16.00;40.60;;;;;;4964518;28;20121;-84
2022/05/06 07:19:11;;;;;;;6.45;3.55;;;16.00;40.60;;;;;;4965024;28;20242;-84
2022/05/06 07:21:37;;;;;;;15.88;7.70;;;16.20;40.70;;;;;;4964922;28;20031;-84
2022/05/06 07:24:03;;;;;;;9.52;6.18;;;16.20;40.70;;;;;;4943936;28;20039;-84
2022/05/06 07:26:30;;;;;;;8.48;5.25;;;16.20;40.50;;;;;;4965821;28;20038;-85
2022/05/06 07:28:57;;;;;;;8.23;4.55;;;16.30;40.20;;;;;;4947591;28;20066;-85
2022/05/06 07:31:22;;;;;;;10.50;4.63;;;16.40;40.20;;;;;;4963417;28;20168;-85
2022/05/06 07:33:49;;;;;;;8.82;4.30;;;16.40;40.10;;;;;;4965535;28;20065;-84
2022/05/06 07:36:15;;;;;;;10.55;4.15;;;16.50;39.60;;;;;;4962940;28;20043;-85
2022/05/06 07:38:41;;;;;;;6.32;3.67;;;16.50;39.40;;;;;;4965019;28;20043;-85
2022/05/06 07:41:07;;;;;;;10.10;4.22;;;16.60;39.10;;;;;;4964026;28;20390;-84
2022/05/06 07:43:34;;;;;;;8.35;3.90;;;16.70;39.50;;;;;;4947493;28;20409;-85
2022/05/06 07:46:00;;;;;;;8.68;3.17;;;16.70;39.50;;;;;;4947521;28;20042;-85
2022/05/06 07:48:26;;;;;;;7.10;3.92;;;16.80;39.50;;;;;;4962932;28;20039;-84
2022/05/06 07:50:52;;;;;;;7.05;3.50;;;16.80;39.20;;;;;;4964932;28;20030;-84
2022/05/06 07:53:19;;;;;;;5.53;3.45;;;16.80;39.40;;;;;;4947564;28;20043;-84
2022/05/06 07:55:45;;;;;;;6.20;3.33;;;16.80;39.40;;;;;;4965144;28;20035;-85
2022/05/06 07:58:12;;;;;;;8.30;3.28;;;16.90;39.40;;;;;;5031148;28;20248;-84
2022/05/06 08:00:38;;;;;;;4.53;3.58;;;16.90;39.30;;;;;;4965028;28;20035;-84
2022/05/06 08:05:56;;;;;;;6.32;2.95;;;16.90;39.30;;;;;;4965837;28;20053;-87
2022/05/06 08:08:26;;;;;;;5.18;3.22;;;16.90;39.60;;;;;;4942989;28;20118;-87
2022/05/06 08:10:53;;;;;;;6.78;3.50;;;16.90;39.90;;;;;;4948014;28;20069;-86
2022/05/06 08:13:20;;;;;;;9.88;3.55;;;16.90;39.70;;;;;;4965363;28;20043;-84
2022/05/06 08:15:47;;;;;;;7.10;3.30;;;16.90;39.60;;;;;;4965506;28;20042;-82
2022/05/06 08:18:13;;;;;;;5.88;3.42;;;16.90;39.10;;;;;;4964808;28;20073;-83
2022/05/06 08:20:40;;;;;;;5.88;3.00;;;16.90;38.80;;;;;;4965876;28;20027;-82
2022/05/06 08:23:07;;;;;;;7.28;3.53;;;16.90;38.70;;;;;;4965970;28;20042;-84
2022/05/06 08:25:33;;;;;;;3.95;3.28;;;16.90;38.70;;;;;;4964673;28;20045;-81
2022/05/06 08:27:59;;;;;;;6.55;3.38;;;16.90;38.60;;;;;;4964352;28;20158;-81
2022/05/06 08:30:25;;;;;;;5.82;3.30;;;16.90;38.70;;;;;;4965079;28;20050;-83
2022/05/06 08:32:54;;;;;;;5.30;3.38;;;16.90;38.70;;;;;;4964601;28;20034;-85
2022/05/06 08:35:20;;;;;;;5.15;3.63;;;16.90;38.60;;;;;;4963953;28;20094;-85
2022/05/06 08:37:47;;;;;;;7.20;3.20;;;17.00;38.80;;;;;;4947539;28;20730;-86
2022/05/06 08:40:26;;;;;;;5.45;3.03;;;17.00;38.90;;;;;;5047005;28;20038;-83
2022/05/06 08:42:53;;;;;;;5.63;2.92;;;17.00;39.10;;;;;;4946583;28;20069;-85
2022/05/06 08:51:12;;;;;;;4.55;2.75;;;17.00;38.70;;;;;;5021560;28;20037;-84
2022/05/06 08:53:40;;;;;;;5.03;2.72;;;17.10;39.20;;;;;;5023577;28;20064;-85
2022/05/06 08:56:06;;;;;;;5.78;3.03;;;17.10;39.50;;;;;;5023659;28;20483;-84
2022/05/06 08:58:40;;;;;;;4.20;2.60;;;17.10;39.90;;;;;;5025156;28;20132;-84
2022/05/06 09:01:08;;;;;;;5.13;2.67;;;17.10;39.50;;;;;;5028457;28;20033;-85
2022/05/06 09:03:38;;;;;;;6.25;3.25;;;17.10;39.20;;;;;;5010264;28;20048;-84
2022/05/06 09:06:04;;;;;;;6.03;3.50;;;17.10;39.00;;;;;;5027173;28;20527;-84
2022/05/06 09:08:40;;;;;;;4.60;3.05;;;17.10;39.00;;;;;;5026678;28;20125;-85
2022/05/06 09:11:10;;;;;;;4.90;2.92;;;17.10;39.20;;;;;;5027545;28;20037;-84
2022/05/06 09:13:37;;;;;;;4.25;2.75;;;17.10;39.20;;;;;;5026780;28;20033;-84
2022/05/06 09:16:42;;;;;;;5.30;2.85;;;17.10;39.00;;;;;;5026871;28;20044;-85
2022/05/06 09:19:25;;;;;;;6.43;2.72;;;17.10;38.70;;;;;;4998118;28;20039;-84
2022/05/06 09:22:09;;;;;;;5.30;3.00;;;17.10;39.00;;;;;;4967422;28;20472;-84
2022/05/06 09:24:38;;;;;;;4.95;2.75;;;17.10;39.00;;;;;;4949871;28;20046;-84
2022/05/06 09:27:09;;;;;;;3.63;2.42;;;17.10;39.20;;;;;;4965543;28;20084;-84
2022/05/06 09:29:43;;;;;;;3.83;2.55;;;17.10;39.20;;;;;;4967180;28;20053;-84
2022/05/06 09:32:16;;;;;;;4.97;2.83;;;17.20;39.20;;;;;;4967362;28;20394;-84
2022/05/06 09:34:44;;;;;;;6.10;2.80;;;17.20;39.40;;;;;;4950787;28;20100;-85
2022/05/06 09:37:10;;;;;;;4.03;2.50;;;17.20;39.30;;;;;;4949998;28;20027;-85
2022/05/06 09:39:39;;;;;;;3.45;2.65;;;17.30;39.10;;;;;;4967167;28;20051;-84
2022/05/06 09:42:06;;;;;;;4.63;2.58;;;17.20;39.00;;;;;;4948832;28;20039;-85
2022/05/06 09:44:33;;;;;;;5.70;2.72;;;17.30;39.00;;;;;;5050302;28;20058;-84
2022/05/06 09:47:09;;;;;;;5.53;2.97;;;17.30;38.80;;;;;;4934344;28;20030;-84
2022/05/06 09:49:38;;;;;;;5.75;2.55;;;17.30;38.70;;;;;;4966644;28;20047;-84
2022/05/06 09:52:09;;;;;;;4.38;2.53;;;17.30;38.80;;;;;;4966306;28;20067;-84
2022/05/06 09:54:35;;;;;;;2.63;2.38;;;17.30;38.90;;;;;;4966965;28;20066;-85
2022/05/06 09:57:06;;;;;;;4.82;2.67;;;17.30;38.70;;;;;;4967234;28;20026;-85
2022/05/06 09:59:32;;;;;;;3.80;2.50;;;17.30;38.50;;;;;;4966138;28;20054;-83
2022/05/06 10:01:58;;;;;;;4.68;2.60;;;17.30;38.40;;;;;;4967554;28;20031;-84
2022/05/06 10:04:25;;;;;;;4.82;2.47;;;17.40;38.40;;;;;;4966489;28;20517;-84
2022/05/06 10:06:52;;;;;;;3.78;2.70;;;17.30;38.10;;;;;;4967201;28;20051;-83
2022/05/06 10:09:22;;;;;;;3.25;2.47;;;17.40;38.10;;;;;;4945679;28;20041;-84
2022/05/06 10:11:51;;;;;;;6.65;2.92;;;17.40;38.10;;;;;;4949415;28;20034;-84
2022/05/06 10:14:18;;;;;;;5.70;3.00;;;17.40;38.20;;;;;;4964902;28;20445;-85
2022/05/06 10:16:44;;;;;;;5.95;2.72;;;17.40;38.10;;;;;;4948926;28;20034;-85
2022/05/06 10:19:44;;;;;;;7.53;3.63;;;17.40;38.10;;;;;;4947005;28;20090;-83
2022/05/06 10:22:10;;;;;;;4.97;3.28;;;17.40;37.70;;;;;;4953543;28;20035;-83
2022/05/06 10:24:41;;;;;;;7.03;2.58;;;17.40;38.10;;;;;;4970089;28;20027;-83
2022/05/06 10:33:17;;;;;;;4.90;3.10;;;17.50;38.00;;;;;;4965403;28;20042;-87
2022/05/06 10:35:45;;;;;;;5.22;3.13;;;17.50;38.00;;;;;;4951706;28;20042;-86
2022/05/06 10:38:15;;;;;;;3.50;2.50;;;17.50;38.10;;;;;;4949145;28;20204;-84
2022/05/06 10:41:09;;;;;;;5.85;3.08;;;17.50;37.90;;;;;;4950065;28;20097;-85
2022/05/06 10:43:42;;;;;;;6.57;3.10;;;17.50;37.70;;;;;;4944109;28;20031;-84
2022/05/06 10:46:08;;;;;;;5.45;3.13;;;17.50;37.70;;;;;;4965779;28;20038;-89
2022/05/06 10:48:35;;;;;;;5.75;3.45;;;17.50;37.80;;;;;;4932764;28;20080;-89
2022/05/06 10:51:24;;;;;;;9.30;3.10;;;17.50;37.70;;;;;;4973648;28;20058;-88
2022/05/06 10:53:51;;;;;;;5.40;2.80;;;17.50;37.40;;;;;;4966044;28;20042;-86
2022/05/06 10:56:17;;;;;;;4.72;3.10;;;17.50;37.70;;;;;;4963994;28;20520;-87
2022/05/06 10:58:43;;;;;;;5.22;3.30;;;17.50;37.60;;;;;;4967392;28;20027;-88
2022/05/06 11:01:16;;;;;;;6.28;3.33;;;17.50;37.60;;;;;;4948686;28;20046;-88
2022/05/06 11:03:55;;;;;;;6.40;3.00;;;17.50;38.10;;;;;;4949472;28;20063;-88
2022/05/06 11:06:22;;;;;;;10.82;2.90;;;17.60;37.20;;;;;;4947679;28;20050;-89
2022/05/06 11:08:48;;;;;;;3.30;2.67;;;17.60;37.40;;;;;;5009802;28;20034;-85
2022/05/06 11:11:16;;;;;;;4.65;2.95;;;17.60;37.50;;;;;;4948255;28;20409;-84
2022/05/06 11:13:44;;;;;;;8.90;3.15;;;17.60;37.70;;;;;;4949225;28;20027;-88
2022/05/06 11:16:14;;;;;;;5.43;2.92;;;17.60;37.70;;;;;;4967129;28;20501;-86
2022/05/06 11:18:45;;;;;;;4.18;2.72;;;17.70;37.80;;;;;;4927889;28;20438;-85
2022/05/06 11:21:28;;;;;;;5.38;2.72;;;17.70;38.00;;;;;;4964986;28;20174;-86
2022/05/06 11:23:54;;;;;;;3.83;2.80;;;17.70;38.00;;;;;;4965307;28;20501;-84
2022/05/06 11:26:27;;;;;;;4.63;2.60;;;17.70;38.20;;;;;;4965795;28;20125;-81
2022/05/06 11:29:03;;;;;;;5.38;2.92;;;17.60;38.00;;;;;;4965610;28;20113;-83
2022/05/06 11:31:29;;;;;;;6.45;3.15;;;17.70;38.40;;;;;;4965824;28;20584;-82
2022/05/06 11:34:06;;;;;;;3.65;3.03;;;17.70;39.30;;;;;;4965169;28;20038;-82
2022/05/06 11:36:33;;;;;;;4.55;3.13;;;17.80;40.50;;;;;;4962966;28;20134;-82
2022/05/06 11:39:08;;;;;;;4.63;3.08;;;17.80;40.70;;;;;;4965001;28;20138;-82
2022/05/06 11:41:35;;;;;;;5.95;3.40;;;17.80;41.40;;;;;;4964866;28;20061;-82
2022/05/06 11:44:05;;;;;;;8.50;3.67;;;17.80;42.00;;;;;;4964303;28;20112;-82
2022/05/06 11:49:26;;;;;;;4.05;3.03;;;17.90;42.20;;;;;;4944221;28;20400;-83
2022/05/06 11:51:56;;;;;;;3.85;2.67;;;17.90;42.50;;;;;;4964699;28;20416;-82
2022/05/06 11:54:24;;;;;;;4.82;3.10;;;17.90;42.20;;;;;;4965465;28;20819;-83
2022/05/06 11:56:51;;;;;;;3.80;3.13;;;18.00;42.30;;;;;;4964906;28;20034;-83
2022/05/06 11:59:17;;;;;;;4.03;2.65;;;18.00;42.20;;;;;;4947223;28;20412;-83
2022/05/06 12:01:43;;;;;;;4.95;2.97;;;18.00;42.30;;;;;;4963981;28;20027;-83
2022/05/06 12:04:10;;;;;;;4.68;2.75;;;18.00;42.50;;;;;;4947593;28;20066;-83
2022/05/06 12:06:47;;;;;;;5.65;3.10;;;18.00;42.60;;;;;;4947472;28;20417;-83
2022/05/06 12:09:16;;;;;;;6.68;3.10;;;18.00;42.70;;;;;;4964274;28;20035;-82
2022/05/06 12:11:44;;;;;;;5.22;2.90;;;18.10;42.50;;;;;;4942149;28;20102;-82
2022/05/06 12:14:17;;;;;;;2.80;2.60;;;18.10;42.50;;;;;;4963559;28;20532;-83
2022/05/06 12:16:59;;;;;;;4.68;3.25;;;18.10;42.60;;;;;;4965102;28;20497;-83
2022/05/06 12:19:43;;;;;;;3.63;2.70;;;18.20;42.60;;;;;;4962974;28;20051;-84
2022/05/06 12:22:10;;;;;;;4.85;2.90;;;18.20;42.70;;;;;;5031015;28;20027;-83
2022/05/06 12:24:45;;;;;;;4.60;2.97;;;18.20;42.80;;;;;;4964526;28;20142;-83
2022/05/06 12:27:12;;;;;;;4.70;3.30;;;18.10;42.40;;;;;;4966637;28;20038;-82
2022/05/06 12:29:39;;;;;;;4.43;3.40;;;18.20;42.40;;;;;;4964552;28;20039;-83
2022/05/06 12:32:06;;;;;;;3.92;2.83;;;18.20;42.20;;;;;;4963838;28;20121;-82
2022/05/06 12:34:33;;;;;;;3.35;2.70;;;18.20;42.40;;;;;;4964176;28;20123;-82
2022/05/06 12:37:14;;;;;;;3.67;3.03;;;18.20;42.60;;;;;;4964423;28;20084;-83
2022/05/06 12:39:44;;;;;;;5.65;2.83;;;18.20;42.60;;;;;;4964905;28;20042;-83
2022/05/06 12:42:23;;;;;;;5.32;2.90;;;18.30;42.70;;;;;;4963716;28;20035;-83
2022/05/06 12:44:49;;;;;;;4.18;3.20;;;18.30;42.70;;;;;;4964255;28;20058;-83
2022/05/06 12:50:07;;;;;;;4.97;3.33;;;18.40;42.90;;;;;;4964177;28;20077;-83
2022/05/06 12:52:35;;;;;;;4.00;3.20;;;18.30;42.80;;;;;;5046766;28;20039;-82
2022/05/06 12:55:02;;;;;;;4.50;3.22;;;18.30;42.70;;;;;;5047116;28;20034;-83
2022/05/06 12:57:29;;;;;;;5.15;3.28;;;18.40;42.50;;;;;;4963962;28;20084;-83
2022/05/06 12:59:55;;;;;;;5.20;3.63;;;18.40;42.40;;;;;;4964081;28;20066;-84
2022/05/06 13:02:21;;;;;;;8.43;3.30;;;18.40;42.50;;;;;;4963776;28;20031;-83
2022/05/06 13:04:47;;;;;;;5.00;3.45;;;18.40;42.50;;;;;;5047913;28;20054;-83
2022/05/06 13:07:16;;;;;;;6.25;3.85;;;18.40;42.60;;;;;;5046585;28;20513;-82
2022/05/06 13:09:42;;;;;;;6.55;3.40;;;18.50;42.80;;;;;;4963703;28;20043;-83
2022/05/06 13:12:09;;;;;;;5.30;3.80;;;18.40;42.90;;;;;;4946323;28;20401;-83
2022/05/06 13:14:35;;;;;;;7.32;3.80;;;18.40;43.00;;;;;;4963753;28;20594;-83
2022/05/06 13:17:01;;;;;;;8.88;4.13;;;18.40;42.80;;;;;;4964230;28;20041;-83
2022/05/06 13:19:29;;;;;;;7.72;4.35;;;18.50;42.50;;;;;;4963693;28;20187;-83
2022/05/06 13:21:56;;;;;;;9.18;4.40;;;18.50;42.30;;;;;;4964235;28;20564;-83
2022/05/06 13:24:23;;;;;;;6.22;4.43;;;18.40;42.40;;;;;;4944144;28;20034;-82
2022/05/06 13:26:50;;;;;;;6.13;4.07;;;18.50;42.30;;;;;;4961516;28;20165;-84
2022/05/06 13:29:16;;;;;;;5.70;4.05;;;18.40;42.10;;;;;;4946356;28;20070;-83
2022/05/06 13:31:42;;;;;;;5.53;3.80;;;18.50;42.20;;;;;;4965026;28;20404;-85
2022/05/06 13:34:08;;;;;;;6.35;4.32;;;18.50;42.20;;;;;;4951142;28;20039;-82
2022/05/06 13:36:34;;;;;;;6.78;3.90;;;18.50;42.20;;;;;;4968391;28;20074;-84
2022/05/06 13:39:00;;;;;;;7.95;4.00;;;18.50;42.40;;;;;;4946395;28;20084;-83